< < Back
Terminal Aerodrome Forecast


Current Version              Previous Versions:   1  2  3  4  5  6  7  8  9  

Terminal Aerodrome Forecast

996
FTUS44 KMOB 050539
TAFPNS
TAF
KPNS 050539Z 0506/0606 08003KT P6SM FEW060 BKN150
     FM051300 19006KT P6SM VCSH SCT030 BKN080
      TEMPO 0513/0517 5SM TSRA BKN025CB
     FM051700 19010KT P6SM VCTS SCT030CB BKN100
     FM052200 24008KT P6SM SCT050 BKN200=



Latest METAR

929
SAUS70 KWBC 061000 RRH
MTRPNS
METAR KPNS 060953Z AUTO 00000KT 10SM CLR 22/21 A3011 RMK AO2 SLP198
T02170206


USA.gov is the U.S. government's official web portal to all federal, state and local government web resources and services.